Time;durP1;ratioP1;P1;durP2;ratioP2;P2;SDS_P1;SDS_P2;PMS_P1;PMS_P2;Temp;Humidity;BMP_temperature;BMP_pressure;BME280_temperature;BME280_humidity;BME280_pressure;Samples;Min_cycle;Max_cycle;Signal;HPM_P1;HPM_P2
2022/11/30 00:01:50;;;;;;;1.98;1.88;;;;;;;3.07;78.88;101851.97;5045293;28;20085;-75
2022/11/30 00:04:15;;;;;;;1.02;1.00;;;;;;;3.01;78.92;101852.59;5043898;28;20021;-73
2022/11/30 00:06:41;;;;;;;0.60;0.60;;;;;;;3.05;78.98;101853.59;5045241;28;20032;-73
2022/11/30 00:09:06;;;;;;;0.50;0.50;;;;;;;3.13;78.82;101852.25;5045385;28;20032;-73
2022/11/30 00:11:32;;;;;;;0.50;0.50;;;;;;;3.00;79.12;101853.41;5045313;28;20029;-73
2022/11/30 00:13:58;;;;;;;0.60;0.60;;;;;;;3.10;79.18;101863.25;5043749;28;20025;-74
2022/11/30 00:16:23;;;;;;;0.73;0.73;;;;;;;3.03;79.35;101860.34;5045243;28;20040;-73
2022/11/30 00:18:49;;;;;;;0.77;0.77;;;;;;;2.97;79.61;101854.13;5044857;28;20110;-73
2022/11/30 00:21:16;;;;;;;0.60;0.60;;;;;;;3.00;79.57;101860.22;5044300;28;20489;-73
2022/11/30 00:23:44;;;;;;;0.70;0.70;;;;;;;3.04;79.79;101867.22;5043795;28;20033;-73
2022/11/30 00:26:12;;;;;;;0.60;0.60;;;;;;;3.03;79.73;101857.78;5043886;28;20029;-73
2022/11/30 00:28:39;;;;;;;0.50;0.50;;;;;;;3.02;79.86;101863.72;5043853;28;20060;-72
2022/11/30 00:31:07;;;;;;;0.60;0.60;;;;;;;3.02;79.75;101863.72;5045059;28;20458;-72
2022/11/30 00:33:34;;;;;;;0.60;0.60;;;;;;;2.97;79.94;101859.25;5044877;28;20060;-72
2022/11/30 00:36:03;;;;;;;0.52;0.52;;;;;;;2.98;80.35;101862.69;5044835;28;20021;-73
2022/11/30 00:38:30;;;;;;;0.50;0.50;;;;;;;2.92;80.38;101850.47;5045097;28;20036;-73
2022/11/30 00:40:56;;;;;;;0.50;0.50;;;;;;;2.93;80.47;101857.34;5044819;28;20079;-72
2022/11/30 00:43:21;;;;;;;0.50;0.50;;;;;;;2.91;80.35;101846.13;5044554;28;20029;-74
2022/11/30 00:45:46;;;;;;;0.50;0.50;;;;;;;2.96;80.57;101848.91;5044838;28;20029;-73
2022/11/30 00:48:12;;;;;;;0.63;0.63;;;;;;;2.90;80.59;101854.66;5044974;28;20029;-73
2022/11/30 00:50:37;;;;;;;0.73;0.73;;;;;;;2.95;80.67;101858.31;5044900;28;20032;-73
2022/11/30 00:53:03;;;;;;;1.60;1.50;;;;;;;2.89;80.63;101845.19;5044825;28;20104;-73
2022/11/30 00:55:30;;;;;;;0.55;0.55;;;;;;;3.11;80.17;101856.47;5044989;28;20024;-73
2022/11/30 00:57:55;;;;;;;2.25;2.15;;;;;;;3.00;80.29;101863.66;5059790;28;20096;-73
2022/11/30 01:00:21;;;;;;;0.45;0.45;;;;;;;2.92;80.63;101847.91;5044859;28;20478;-73
2022/11/30 01:02:46;;;;;;;0.57;0.57;;;;;;;3.03;80.65;101860.34;5047871;28;20059;-73
2022/11/30 01:05:11;;;;;;;0.60;0.60;;;;;;;3.01;80.49;101862.84;5063874;28;20254;-73
2022/11/30 01:07:36;;;;;;;0.50;0.50;;;;;;;3.07;80.35;101862.25;5047324;28;20065;-73
2022/11/30 01:10:02;;;;;;;1.95;1.85;;;;;;;2.99;80.67;101859.31;5048535;28;20110;-73
2022/11/30 01:12:28;;;;;;;0.50;0.50;;;;;;;3.03;80.46;101861.25;5063942;28;20060;-73
2022/11/30 01:14:53;;;;;;;0.52;0.52;;;;;;;2.99;80.55;101863.59;5047350;28;20028;-72
2022/11/30 01:17:18;;;;;;;0.50;0.50;;;;;;;3.03;80.73;101870.63;5063847;28;20099;-73
2022/11/30 01:19:44;;;;;;;0.60;0.60;;;;;;;3.02;80.79;101863.72;5048260;28;20041;-73
2022/11/30 01:22:09;;;;;;;1.33;1.25;;;;;;;3.02;80.52;101864.59;5047943;28;20037;-73
2022/11/30 01:24:34;;;;;;;0.68;0.68;;;;;;;3.09;80.49;101876.91;5047148;28;20484;-72
2022/11/30 01:27:00;;;;;;;0.60;0.60;;;;;;;3.07;80.38;101877.63;5046853;28;20044;-73
2022/11/30 01:29:25;;;;;;;0.60;0.60;;;;;;;3.07;80.23;101864.81;5047597;28;20025;-73
2022/11/30 01:31:50;;;;;;;0.60;0.60;;;;;;;3.03;80.28;101876.63;5047765;28;20056;-72
2022/11/30 01:34:16;;;;;;;0.55;0.55;;;;;;;3.06;80.40;101879.34;5048319;28;20033;-72
2022/11/30 01:36:42;;;;;;;1.15;1.15;;;;;;;3.18;80.14;101885.84;5048449;28;20024;-73
2022/11/30 01:39:08;;;;;;;1.15;1.15;;;;;;;3.10;80.03;101880.34;5047935;28;20378;-72
2022/11/30 01:41:34;;;;;;;2.70;2.50;;;;;;;3.04;80.34;101880.94;5063710;28;20033;-72
2022/11/30 01:44:05;;;;;;;0.60;0.60;;;;;;;3.07;80.51;101883.66;5047786;28;20087;-73
2022/11/30 01:46:53;;;;;;;0.60;0.60;;;;;;;3.06;80.14;101888.72;5048006;28;20085;-73
2022/11/30 01:49:28;;;;;;;0.60;0.60;;;;;;;3.10;79.82;101888.94;5044016;28;20512;-74
2022/11/30 01:52:01;;;;;;;0.50;0.50;;;;;;;3.04;79.93;101892.88;5047944;28;20029;-73
2022/11/30 01:54:34;;;;;;;0.50;0.50;;;;;;;3.06;80.01;101891.28;5047868;28;20036;-73
2022/11/30 01:57:07;;;;;;;0.63;0.63;;;;;;;2.99;80.20;101884.13;5046426;28;20026;-73
2022/11/30 01:59:33;;;;;;;0.50;0.50;;;;;;;2.97;80.21;101879.78;5048111;28;20144;-73
2022/11/30 02:01:58;;;;;;;0.50;0.50;;;;;;;2.97;80.19;101877.22;5047500;28;20022;-73
2022/11/30 02:04:28;;;;;;;0.50;0.50;;;;;;;3.10;79.81;101881.22;5047501;28;20017;-74
2022/11/30 02:06:55;;;;;;;0.50;0.50;;;;;;;2.99;80.05;101879.84;5047586;28;20040;-73
2022/11/30 02:09:22;;;;;;;0.60;0.60;;;;;;;3.06;79.78;101878.44;5047537;28;20025;-74
2022/11/30 02:11:48;;;;;;;0.52;0.52;;;;;;;2.95;79.95;101889.09;5047306;28;20083;-73
2022/11/30 02:14:14;;;;;;;0.80;0.80;;;;;;;2.93;80.24;101890.72;5047211;28;20021;-74
2022/11/30 02:17:00;;;;;;;0.50;0.50;;;;;;;3.00;80.06;101891.00;5047363;28;20458;-74
2022/11/30 02:19:47;;;;;;;0.50;0.50;;;;;;;2.97;80.08;101895.16;5047189;28;20049;-73
2022/11/30 02:22:24;;;;;;;0.50;0.50;;;;;;;2.91;80.26;101889.75;5045858;28;20052;-73
2022/11/30 02:24:58;;;;;;;1.02;1.02;;;;;;;2.91;80.20;101894.88;5062520;28;20405;-73
2022/11/30 02:27:38;;;;;;;0.60;0.60;;;;;;;3.03;79.58;101886.91;5047421;28;20071;-72
2022/11/30 02:30:20;;;;;;;0.60;0.60;;;;;;;2.81;79.82;101880.72;5047198;28;20036;-73
2022/11/30 02:32:58;;;;;;;0.70;0.70;;;;;;;2.96;79.91;101895.09;5062585;28;20108;-73
2022/11/30 02:35:33;;;;;;;0.60;0.60;;;;;;;2.90;79.95;101892.25;5062307;28;20112;-73
2022/11/30 02:38:01;;;;;;;0.50;0.50;;;;;;;2.93;79.61;101887.25;5047170;28;20025;-73
2022/11/30 02:40:27;;;;;;;0.50;0.50;;;;;;;2.88;80.05;101897.31;5047110;28;20029;-73
2022/11/30 02:42:54;;;;;;;0.50;0.50;;;;;;;2.82;80.24;101884.19;5062223;28;20051;-73
2022/11/30 02:45:30;;;;;;;0.60;0.60;;;;;;;2.81;80.50;101887.56;5062068;28;20116;-72
2022/11/30 02:48:05;;;;;;;0.55;0.55;;;;;;;2.84;80.22;101896.25;5062301;28;20025;-73
2022/11/30 02:50:37;;;;;;;0.50;0.50;;;;;;;2.90;80.14;101897.38;5047099;28;20025;-74
2022/11/30 02:53:03;;;;;;;0.60;0.60;;;;;;;2.83;80.17;101888.50;5046872;28;20037;-73
2022/11/30 02:55:30;;;;;;;0.50;0.50;;;;;;;2.88;80.03;101897.31;5046639;28;20020;-73
2022/11/30 02:57:56;;;;;;;0.50;0.50;;;;;;;2.90;80.05;101900.84;5046550;28;20036;-74
2022/11/30 03:00:21;;;;;;;0.50;0.50;;;;;;;2.88;80.05;101907.56;5046741;28;20025;-73
2022/11/30 03:02:46;;;;;;;0.55;0.55;;;;;;;2.90;79.85;101905.97;5046532;28;20036;-73
2022/11/30 03:05:12;;;;;;;0.50;0.50;;;;;;;2.87;79.93;101903.25;5046378;28;20060;-73
2022/11/30 03:07:37;;;;;;;2.35;2.25;;;;;;;2.82;79.97;101913.28;5046467;28;20033;-73
2022/11/30 03:10:04;;;;;;;0.70;0.70;;;;;;;2.81;80.14;101913.22;5046377;28;20083;-73
2022/11/30 03:12:30;;;;;;;0.50;0.50;;;;;;;2.79;80.21;101914.81;5046101;28;20053;-73
2022/11/30 03:14:55;;;;;;;0.60;0.60;;;;;;;2.72;80.15;101904.28;5046277;28;20022;-73
2022/11/30 03:17:21;;;;;;;0.50;0.50;;;;;;;2.82;79.64;101907.28;5046247;28;20083;-73
2022/11/30 03:19:46;;;;;;;0.60;0.60;;;;;;;2.75;80.03;101918.06;5046032;28;20460;-73
2022/11/30 03:22:11;;;;;;;0.50;0.50;;;;;;;2.80;79.83;101919.13;5046051;28;20029;-73
2022/11/30 03:24:37;;;;;;;0.50;0.50;;;;;;;2.78;79.70;101920.78;5060572;28;20021;-74
2022/11/30 03:27:02;;;;;;;0.50;0.50;;;;;;;2.76;79.44;101924.94;5045539;28;20041;-73
2022/11/30 03:29:27;;;;;;;0.60;0.60;;;;;;;2.49;79.97;101895.47;5044666;28;20072;-73
2022/11/30 03:31:53;;;;;;;0.50;0.50;;;;;;;2.52;80.12;101903.31;5045091;28;20030;-74
2022/11/30 03:34:18;;;;;;;0.60;0.60;;;;;;;2.57;80.20;101916.34;5045899;28;20052;-73
2022/11/30 03:36:43;;;;;;;0.50;0.50;;;;;;;2.65;80.09;101919.28;5044430;28;20067;-75
2022/11/30 03:39:09;;;;;;;0.50;0.50;;;;;;;2.61;79.91;101923.38;5045810;28;20061;-73
2022/11/30 03:41:34;;;;;;;0.50;0.50;;;;;;;2.53;80.04;101924.69;5045778;28;20116;-74
2022/11/30 03:44:00;;;;;;;0.60;0.60;;;;;;;2.51;80.35;101914.34;5043962;28;20102;-73
2022/11/30 03:46:26;;;;;;;0.82;0.82;;;;;;;2.56;79.91;101918.03;5045706;28;20022;-73
2022/11/30 03:48:51;;;;;;;0.60;0.60;;;;;;;2.57;79.77;101919.78;5045611;28;20036;-73
2022/11/30 03:51:17;;;;;;;2.17;2.08;;;;;;;2.54;79.81;101921.34;5045539;28;20022;-72
2022/11/30 03:53:43;;;;;;;0.60;0.60;;;;;;;2.64;79.12;101923.53;5045399;28;20041;-72
2022/11/30 03:56:10;;;;;;;0.60;0.60;;;;;;;2.44;79.89;101935.38;5060608;28;20493;-72
2022/11/30 03:58:35;;;;;;;0.55;0.55;;;;;;;2.53;79.30;101925.56;5045296;28;20029;-73
2022/11/30 04:01:10;;;;;;;0.52;0.52;;;;;;;2.48;79.63;101921.88;5045354;28;20354;-73
2022/11/30 04:03:36;;;;;;;0.60;0.60;;;;;;;2.41;79.90;101930.09;5045218;28;20022;-72
2022/11/30 04:06:02;;;;;;;0.50;0.50;;;;;;;2.54;79.08;101936.72;5045166;28;20488;-73
2022/11/30 04:08:28;;;;;;;1.80;1.70;;;;;;;2.39;79.66;101936.81;5045355;28;20033;-73
2022/11/30 04:10:55;;;;;;;0.55;0.55;;;;;;;2.32;79.83;101940.75;5045301;28;20414;-73
2022/11/30 04:13:22;;;;;;;0.60;0.60;;;;;;;2.35;79.84;101948.59;5045247;28;20026;-74
2022/11/30 04:15:49;;;;;;;0.88;0.88;;;;;;;2.27;80.05;101943.09;5060554;28;20014;-74
2022/11/30 04:18:15;;;;;;;0.50;0.50;;;;;;;2.33;79.87;101939.97;5045153;28;20037;-74
2022/11/30 04:20:41;;;;;;;0.60;0.60;;;;;;;2.28;80.15;101949.09;5045288;28;20350;-74
2022/11/30 04:23:08;;;;;;;0.50;0.50;;;;;;;2.19;80.17;101935.00;5045217;28;20056;-74
2022/11/30 04:25:33;;;;;;;0.60;0.60;;;;;;;2.23;79.92;101936.06;5043793;28;20025;-74
2022/11/30 04:27:58;;;;;;;0.82;0.82;;;;;;;2.20;80.06;101944.47;5044930;28;20126;-74
2022/11/30 04:30:24;;;;;;;0.98;0.98;;;;;;;2.31;79.86;101944.13;5045155;28;20055;-74
2022/11/30 04:32:49;;;;;;;0.60;0.60;;;;;;;2.22;79.87;101940.28;5043709;28;20088;-73
2022/11/30 04:35:14;;;;;;;0.50;0.50;;;;;;;2.19;80.09;101939.28;5044714;28;20029;-74
2022/11/30 04:37:40;;;;;;;0.50;0.50;;;;;;;2.18;80.17;101943.50;5043142;28;20044;-74
2022/11/30 04:40:06;;;;;;;0.50;0.50;;;;;;;2.32;79.46;101946.75;5043770;28;20026;-74
2022/11/30 04:42:32;;;;;;;0.75;0.75;;;;;;;2.14;79.74;101935.59;5044726;28;20032;-73
2022/11/30 04:44:57;;;;;;;0.50;0.50;;;;;;;2.13;79.89;101937.25;5043675;28;20040;-73
2022/11/30 04:47:23;;;;;;;0.70;0.70;;;;;;;2.18;79.85;101943.50;5044968;28;20053;-74
2022/11/30 04:49:48;;;;;;;1.60;1.50;;;;;;;2.18;79.94;101943.50;5045146;28;20036;-74
2022/11/30 04:52:14;;;;;;;0.50;0.50;;;;;;;2.12;80.00;101938.06;5045046;28;20045;-73
2022/11/30 04:54:39;;;;;;;0.70;0.70;;;;;;;2.14;80.01;101940.72;5060189;28;20025;-73
2022/11/30 04:57:05;;;;;;;0.50;0.50;;;;;;;2.14;79.97;101949.25;5060160;28;20025;-73
2022/11/30 04:59:31;;;;;;;0.50;0.50;;;;;;;2.15;79.71;101942.47;5044687;28;20026;-73
2022/11/30 05:01:56;;;;;;;0.50;0.50;;;;;;;2.17;79.88;101959.66;5044873;28;20076;-74
2022/11/30 05:04:21;;;;;;;0.93;0.93;;;;;;;2.17;79.82;101946.00;5044802;28;20028;-74
2022/11/30 05:06:47;;;;;;;0.50;0.50;;;;;;;2.21;79.73;101948.78;5045255;28;20030;-78
2022/11/30 05:09:12;;;;;;;0.50;0.50;;;;;;;2.27;79.25;101950.78;5046062;28;20040;-80
2022/11/30 05:11:37;;;;;;;0.60;0.60;;;;;;;2.14;79.62;101946.69;5049981;28;20052;-80
2022/11/30 05:14:04;;;;;;;0.52;0.52;;;;;;;2.19;79.64;101947.81;5053634;28;20026;-76
2022/11/30 05:16:29;;;;;;;0.50;0.50;;;;;;;2.27;79.38;101955.03;5053510;28;20064;-79
2022/11/30 05:18:54;;;;;;;0.50;0.50;;;;;;;2.22;79.33;101959.94;5055618;28;20045;-78
2022/11/30 05:21:20;;;;;;;0.55;0.55;;;;;;;2.21;79.43;101956.47;5052506;28;20037;-78
2022/11/30 05:23:47;;;;;;;0.50;0.50;;;;;;;2.23;79.23;101947.19;5049129;28;20032;-75
2022/11/30 05:26:13;;;;;;;0.50;0.50;;;;;;;2.25;79.37;101951.50;5044491;28;20032;-69
2022/11/30 05:28:38;;;;;;;0.50;0.50;;;;;;;2.23;79.37;101957.44;5044226;28;20053;-75
2022/11/30 05:31:04;;;;;;;0.60;0.60;;;;;;;2.27;79.30;101955.03;5060043;28;20028;-74
2022/11/30 05:33:30;;;;;;;0.60;0.60;;;;;;;2.27;79.13;101955.88;5044632;28;20048;-72
2022/11/30 05:35:56;;;;;;;1.45;1.42;;;;;;;2.29;79.12;101959.44;5059332;28;20026;-74
2022/11/30 05:38:21;;;;;;;0.50;0.50;;;;;;;2.29;78.92;101961.09;5059785;28;20116;-72
2022/11/30 05:40:47;;;;;;;0.60;0.60;;;;;;;2.22;78.86;101954.81;5044788;28;20075;-73
2022/11/30 05:43:12;;;;;;;0.50;0.50;;;;;;;2.29;78.74;101971.34;5044367;28;20052;-73
2022/11/30 05:45:38;;;;;;;0.50;0.50;;;;;;;2.23;78.94;101975.38;5044501;28;20028;-73
2022/11/30 05:48:03;;;;;;;0.50;0.50;;;;;;;2.29;78.73;101966.22;5046427;28;20108;-74
2022/11/30 05:50:29;;;;;;;0.60;0.60;;;;;;;2.23;78.51;101965.13;5048297;28;20049;-74
2022/11/30 05:52:55;;;;;;;0.60;0.60;;;;;;;2.27;78.71;101970.41;5048083;28;20056;-75
2022/11/30 05:55:21;;;;;;;0.95;0.95;;;;;;;2.26;78.77;101978.88;5063232;28;20022;-74
2022/11/30 05:57:47;;;;;;;0.55;0.55;;;;;;;2.28;78.36;101973.06;5048040;28;20021;-73
2022/11/30 06:00:13;;;;;;;1.80;1.75;;;;;;;2.32;78.05;101976.63;5048208;28;20026;-73
2022/11/30 06:02:38;;;;;;;0.60;0.60;;;;;;;2.22;78.20;101971.03;5063162;28;20025;-73
2022/11/30 06:05:04;;;;;;;0.60;0.60;;;;;;;2.21;78.27;101973.53;5063066;28;20024;-73
2022/11/30 06:07:29;;;;;;;0.52;0.52;;;;;;;2.19;78.21;101976.00;5047905;28;20024;-70
2022/11/30 06:09:55;;;;;;;0.60;0.60;;;;;;;2.19;78.15;101972.59;5047949;28;20037;-73
2022/11/30 06:12:20;;;;;;;0.50;0.50;;;;;;;2.23;78.26;101966.81;5047900;28;20147;-74
2022/11/30 06:14:46;;;;;;;1.85;1.75;;;;;;;2.25;77.96;101967.78;5047658;28;20052;-72
2022/11/30 06:17:11;;;;;;;0.60;0.60;;;;;;;2.14;78.11;101972.31;5047959;28;20036;-72
2022/11/30 06:19:36;;;;;;;0.60;0.60;;;;;;;2.26;77.65;101974.66;5047461;28;20104;-73
2022/11/30 06:22:02;;;;;;;0.50;0.50;;;;;;;2.21;77.72;101976.97;5047604;28;20025;-75
2022/11/30 06:24:27;;;;;;;0.60;0.60;;;;;;;2.12;77.86;101984.19;5062924;28;20032;-72
2022/11/30 06:26:52;;;;;;;0.60;0.60;;;;;;;2.11;78.12;101979.84;5047660;28;20029;-70
2022/11/30 06:29:18;;;;;;;0.50;0.50;;;;;;;2.14;78.07;101986.84;5047319;28;20029;-72
2022/11/30 06:31:43;;;;;;;0.50;0.50;;;;;;;2.08;78.05;101987.38;5047352;28;20032;-70
2022/11/30 06:34:08;;;;;;;0.60;0.60;;;;;;;2.12;78.21;101988.44;5047388;28;20022;-69
2022/11/30 06:36:34;;;;;;;0.60;0.60;;;;;;;2.10;78.22;101991.81;5047282;28;20100;-69
2022/11/30 06:38:59;;;;;;;0.60;0.60;;;;;;;2.23;78.03;102002.69;5047180;28;20034;-70
2022/11/30 06:41:25;;;;;;;0.98;0.98;;;;;;;2.19;78.01;102006.75;5047142;28;20052;-69
2022/11/30 06:43:51;;;;;;;0.60;0.60;;;;;;;2.13;77.82;101991.06;5046999;28;20040;-69
2022/11/30 06:46:17;;;;;;;0.60;0.60;;;;;;;2.20;78.09;102005.09;5046889;28;20077;-69
2022/11/30 06:48:42;;;;;;;3.75;3.50;;;;;;;2.25;77.84;102005.31;5046776;28;20026;-68
2022/11/30 06:51:09;;;;;;;0.60;0.60;;;;;;;2.23;77.75;102007.81;5046901;28;20029;-69
2022/11/30 06:53:35;;;;;;;0.60;0.60;;;;;;;2.19;77.49;102013.59;5047122;28;20025;-69
2022/11/30 06:56:08;;;;;;;1.20;1.20;;;;;;;2.28;77.21;102016.63;5047033;28;20024;-69
2022/11/30 06:58:33;;;;;;;0.60;0.60;;;;;;;2.15;77.54;102015.09;5046060;28;20040;-71
2022/11/30 07:00:59;;;;;;;0.60;0.60;;;;;;;2.12;77.90;102020.06;5046647;28;20065;-70
2022/11/30 07:03:24;;;;;;;0.60;0.60;;;;;;;2.14;77.89;102028.69;5045570;28;20025;-71
2022/11/30 07:05:50;;;;;;;0.60;0.60;;;;;;;2.18;77.70;102030.63;5045247;28;20081;-69
2022/11/30 07:08:16;;;;;;;0.60;0.60;;;;;;;2.16;77.84;102029.66;5046852;28;20030;-70
2022/11/30 07:10:43;;;;;;;0.60;0.60;;;;;;;2.19;77.53;102034.94;5046676;28;20033;-69
2022/11/30 07:13:09;;;;;;;0.65;0.65;;;;;;;2.13;77.70;102021.81;5046600;28;20091;-70
2022/11/30 07:15:35;;;;;;;1.02;1.02;;;;;;;2.12;77.80;102030.31;5046369;28;20022;-69
2022/11/30 07:18:00;;;;;;;0.50;0.50;;;;;;;2.15;77.59;102032.16;5046437;28;20043;-70
2022/11/30 07:20:26;;;;;;;0.50;0.50;;;;;;;2.16;77.74;102026.22;5046752;28;20374;-70
2022/11/30 07:22:54;;;;;;;0.60;0.60;;;;;;;2.18;77.81;102038.31;5046554;28;20033;-73
2022/11/30 07:28:06;;;;;;;0.50;0.50;;;;;;;2.20;77.21;102031.59;5045112;28;20487;-69
2022/11/30 07:30:31;;;;;;;0.60;0.60;;;;;;;2.12;77.56;102038.00;5045108;28;20049;-70
2022/11/30 07:32:56;;;;;;;0.50;0.50;;;;;;;2.23;77.05;102031.75;5045840;28;20022;-70
2022/11/30 07:35:22;;;;;;;0.60;0.60;;;;;;;2.20;77.00;102041.84;5046225;28;20029;-69
2022/11/30 07:37:47;;;;;;;0.60;0.60;;;;;;;2.01;77.44;102026.28;5046110;28;20032;-71
2022/11/30 07:40:12;;;;;;;0.50;0.50;;;;;;;2.07;77.40;102047.13;5046188;28;20088;-69
2022/11/30 07:42:38;;;;;;;0.50;0.50;;;;;;;2.18;77.06;102043.44;5045782;28;20022;-70
2022/11/30 07:45:03;;;;;;;0.60;0.60;;;;;;;2.17;76.97;102035.69;5045789;28;20052;-70
2022/11/30 07:47:29;;;;;;;0.60;0.60;;;;;;;2.05;77.34;102041.00;5045798;28;20049;-70
2022/11/30 07:49:54;;;;;;;0.50;0.50;;;;;;;2.19;77.19;102046.91;5046181;28;20022;-70
2022/11/30 07:52:19;;;;;;;0.60;0.60;;;;;;;2.16;76.90;102044.16;5061269;28;20112;-70
2022/11/30 07:54:45;;;;;;;0.60;0.60;;;;;;;2.13;77.01;102052.56;5045754;28;20021;-70
2022/11/30 07:57:11;;;;;;;0.75;0.75;;;;;;;2.06;77.29;102053.06;5044514;28;20060;-70
2022/11/30 07:59:36;;;;;;;0.50;0.50;;;;;;;2.10;77.06;102047.28;5061086;28;20021;-71
2022/11/30 08:02:01;;;;;;;0.50;0.50;;;;;;;2.08;77.53;102054.00;5045773;28;20025;-70
2022/11/30 08:04:27;;;;;;;0.50;0.50;;;;;;;2.11;77.09;102054.16;5045662;28;20036;-69
2022/11/30 08:06:54;;;;;;;0.50;0.50;;;;;;;2.05;77.52;102047.03;5045599;28;20093;-69
2022/11/30 08:09:19;;;;;;;0.50;0.50;;;;;;;2.03;77.62;102048.63;5045551;28;20474;-69
2022/11/30 08:11:44;;;;;;;0.60;0.60;;;;;;;2.15;77.51;102050.06;5045494;28;20036;-69
2022/11/30 08:14:11;;;;;;;0.50;0.50;;;;;;;2.29;77.64;102058.50;5043998;28;20021;-69
2022/11/30 08:16:37;;;;;;;0.57;0.57;;;;;;;2.47;77.32;102059.47;5045420;28;20077;-70
2022/11/30 08:19:02;;;;;;;0.63;0.63;;;;;;;2.57;77.04;102057.38;5044031;28;20056;-70
2022/11/30 08:21:27;;;;;;;0.50;0.50;;;;;;;2.70;77.04;102057.19;5045455;28;20037;-70
2022/11/30 08:23:55;;;;;;;0.60;0.60;;;;;;;2.85;76.97;102054.53;5045581;28;20104;-70
2022/11/30 08:26:23;;;;;;;0.50;0.50;;;;;;;3.10;76.79;102055.72;5045255;28;20021;-70
2022/11/30 08:28:50;;;;;;;0.50;0.50;;;;;;;3.37;75.61;102057.00;5045219;28;20025;-70
2022/11/30 08:31:24;;;;;;;0.50;0.50;;;;;;;3.35;74.86;102059.47;5045373;28;20048;-71
2022/11/30 08:33:57;;;;;;;0.60;0.60;;;;;;;3.25;74.29;102070.13;5045330;28;20032;-71
2022/11/30 08:36:24;;;;;;;2.33;2.03;;;;;;;3.19;75.05;102063.03;5045185;28;20026;-70
2022/11/30 08:38:50;;;;;;;0.60;0.60;;;;;;;3.29;74.99;102074.59;5045371;28;20067;-71
2022/11/30 08:41:18;;;;;;;1.80;1.70;;;;;;;3.42;75.13;102070.09;5045300;28;20032;-70
2022/11/30 08:43:44;;;;;;;0.60;0.60;;;;;;;3.45;74.76;102068.53;5060403;28;20041;-69
2022/11/30 08:46:12;;;;;;;0.50;0.50;;;;;;;3.51;74.01;102069.63;5044788;28;20112;-70
2022/11/30 08:48:37;;;;;;;0.60;0.60;;;;;;;3.47;72.97;102073.72;5045461;28;20049;-70
2022/11/30 08:51:05;;;;;;;0.60;0.60;;;;;;;3.32;73.99;102073.88;5045097;28;20033;-71
2022/11/30 08:53:32;;;;;;;0.60;0.60;;;;;;;3.34;73.74;102072.25;5045019;28;20026;-71
2022/11/30 08:55:58;;;;;;;0.50;0.50;;;;;;;3.27;73.71;102083.94;5044975;28;20636;-71
2022/11/30 08:58:25;;;;;;;0.50;0.50;;;;;;;3.20;73.64;102085.31;5045009;28;20026;-70
2022/11/30 09:00:51;;;;;;;0.50;0.50;;;;;;;3.16;73.70;102085.97;5044998;28;20022;-71
2022/11/30 09:03:16;;;;;;;0.50;0.50;;;;;;;3.10;73.93;102090.78;5045134;28;20030;-71
2022/11/30 09:05:41;;;;;;;0.77;0.77;;;;;;;3.10;74.22;102081.41;5044872;28;20032;-72
2022/11/30 09:08:07;;;;;;;0.60;0.60;;;;;;;3.15;73.85;102089.31;5044824;28;20021;-71
2022/11/30 09:10:32;;;;;;;0.60;0.60;;;;;;;3.10;73.96;102095.91;5045052;28;20045;-70
2022/11/30 09:12:57;;;;;;;0.60;0.60;;;;;;;3.07;74.41;102093.19;5044500;28;20022;-71
2022/11/30 09:15:23;;;;;;;0.60;0.60;;;;;;;3.09;74.33;102089.03;5044914;28;20028;-71
2022/11/30 09:17:48;;;;;;;0.47;0.47;;;;;;;3.18;74.00;102092.03;5044659;28;20021;-70
2022/11/30 09:20:14;;;;;;;0.50;0.50;;;;;;;3.21;73.80;102097.31;5044907;28;20393;-70
2022/11/30 09:22:39;;;;;;;0.60;0.60;;;;;;;3.18;74.00;102104.00;5046069;28;20056;-69
2022/11/30 09:25:05;;;;;;;0.60;0.60;;;;;;;3.20;73.75;102113.53;5048535;28;20030;-69
2022/11/30 09:27:31;;;;;;;0.60;0.60;;;;;;;3.16;74.04;102101.38;5048642;28;20025;-69
2022/11/30 09:29:57;;;;;;;0.60;0.60;;;;;;;3.17;74.15;102105.69;5048669;28;20029;-70
2022/11/30 09:32:22;;;;;;;0.60;0.60;;;;;;;3.28;74.08;102107.91;5048669;28;20032;-70
2022/11/30 09:34:48;;;;;;;0.52;0.52;;;;;;;3.35;74.01;102118.53;5048437;28;20025;-70
2022/11/30 09:37:13;;;;;;;0.50;0.50;;;;;;;3.50;74.45;102111.53;5048614;28;20104;-71
2022/11/30 09:39:38;;;;;;;0.50;0.50;;;;;;;3.81;73.79;102116.44;5048449;28;20385;-70
2022/11/30 09:42:11;;;;;;;0.57;0.57;;;;;;;4.22;73.45;102116.59;5048457;28;20028;-70
2022/11/30 09:44:42;;;;;;;0.50;0.50;;;;;;;4.59;71.98;102119.06;5048109;28;20025;-70
2022/11/30 09:47:26;;;;;;;0.67;0.67;;;;;;;4.74;70.29;102110.25;5048664;28;20063;-69
2022/11/30 09:49:51;;;;;;;0.50;0.50;;;;;;;4.64;69.92;102112.44;5048331;28;20033;-70
2022/11/30 09:52:25;;;;;;;0.50;0.50;;;;;;;4.52;70.31;102114.47;5063549;28;20049;-70
2022/11/30 09:54:50;;;;;;;0.50;0.50;;;;;;;4.40;70.21;102104.50;5048163;28;20079;-70
2022/11/30 09:57:41;;;;;;;0.50;0.50;;;;;;;4.38;70.60;102108.72;5048093;28;20542;-70
2022/11/30 10:00:14;;;;;;;2.00;1.85;;;;;;;4.31;70.35;102108.41;5047956;28;20108;-71
2022/11/30 10:02:40;;;;;;;0.60;0.60;;;;;;;4.29;70.69;102104.91;5047992;28;20087;-70
2022/11/30 10:05:15;;;;;;;0.63;0.63;;;;;;;4.33;70.21;102111.03;5047851;28;20022;-70
2022/11/30 10:07:54;;;;;;;0.50;0.50;;;;;;;4.29;70.03;102110.06;5063395;28;20021;-70
2022/11/30 10:10:40;;;;;;;0.50;0.50;;;;;;;4.25;70.15;102110.69;5047975;28;20025;-71
2022/11/30 10:13:18;;;;;;;0.60;0.60;;;;;;;4.16;70.00;102108.59;5047589;28;20125;-70
2022/11/30 10:16:02;;;;;;;0.50;0.50;;;;;;;4.06;70.59;102104.72;5063125;28;20067;-71
2022/11/30 10:18:33;;;;;;;0.50;0.50;;;;;;;4.06;70.79;102111.56;5047718;28;20046;-70
2022/11/30 10:21:02;;;;;;;0.60;0.60;;;;;;;4.04;70.98;102113.19;5063087;28;20039;-70
2022/11/30 10:23:57;;;;;;;4.53;1.30;;;;;;;4.02;70.89;102110.56;5063125;28;20262;-70
2022/11/30 10:26:28;;;;;;;0.60;0.60;;;;;;;3.99;71.21;102110.41;5047732;28;20039;-69
2022/11/30 10:29:01;;;;;;;1.08;1.08;;;;;;;3.99;71.14;102110.41;5047426;28;20052;-69
2022/11/30 10:31:33;;;;;;;0.50;0.50;;;;;;;3.95;70.98;102105.91;5047611;28;20027;-70
2022/11/30 10:34:11;;;;;;;0.70;0.70;;;;;;;3.86;70.74;102100.34;5047462;28;20095;-70
2022/11/30 10:36:40;;;;;;;0.60;0.60;;;;;;;3.80;70.98;102101.81;5047470;28;20022;-70
2022/11/30 10:39:24;;;;;;;0.60;0.60;;;;;;;3.78;70.92;102105.13;5062914;28;20025;-69
2022/11/30 10:41:55;;;;;;;0.60;0.60;;;;;;;3.78;70.57;102110.28;5047338;28;20140;-71
2022/11/30 10:44:27;;;;;;;0.70;0.70;;;;;;;3.70;70.91;102105.66;5062499;28;20493;-70
2022/11/30 10:47:03;;;;;;;0.50;0.50;;;;;;;3.77;71.32;102104.25;5045963;28;20283;-70
2022/11/30 10:49:30;;;;;;;0.60;0.60;;;;;;;3.90;71.30;102110.00;5047239;28;20029;-71
2022/11/30 10:52:07;;;;;;;0.60;0.60;;;;;;;3.97;71.23;102102.63;5047201;28;20104;-71
2022/11/30 10:54:35;;;;;;;0.60;0.60;;;;;;;4.01;71.27;102100.19;5046740;28;20049;-70
2022/11/30 10:57:02;;;;;;;0.55;0.55;;;;;;;4.15;70.83;102105.97;5045867;28;20022;-71
2022/11/30 10:59:47;;;;;;;0.50;0.50;;;;;;;4.16;70.27;102105.16;5044308;28;20516;-71
2022/11/30 11:02:45;;;;;;;2.75;2.55;;;;;;;4.15;70.52;102106.84;5046976;28;20049;-70
2022/11/30 11:05:15;;;;;;;0.50;0.50;;;;;;;4.12;70.55;102104.13;5046612;28;20026;-71
2022/11/30 11:08:16;;;;;;;0.60;0.60;;;;;;;4.08;70.17;102102.22;5046780;28;20049;-70
2022/11/30 11:10:42;;;;;;;0.60;0.60;;;;;;;4.07;70.05;102101.34;5062071;28;20052;-70
2022/11/30 11:13:42;;;;;;;0.60;0.60;;;;;;;4.17;70.15;102106.94;5046537;28;20128;-71
2022/11/30 11:16:12;;;;;;;0.60;0.60;;;;;;;4.26;69.43;102104.78;5046423;28;20461;-70
2022/11/30 11:18:55;;;;;;;0.60;0.60;;;;;;;4.19;69.49;102097.56;5046406;28;20053;-71
2022/11/30 11:21:22;;;;;;;0.85;0.85;;;;;;;4.21;69.77;102107.13;5046554;28;20021;-71
2022/11/30 11:23:54;;;;;;;0.60;0.60;;;;;;;4.17;70.09;102100.06;5046090;28;20063;-70
2022/11/30 11:26:22;;;;;;;0.60;0.60;;;;;;;4.27;69.96;102103.94;5045212;28;20036;-71
2022/11/30 11:28:50;;;;;;;0.50;0.50;;;;;;;4.29;70.22;102102.34;5060099;28;20386;-71
2022/11/30 11:31:16;;;;;;;0.50;0.50;;;;;;;4.29;70.40;102104.91;5045653;28;20029;-70
2022/11/30 11:33:52;;;;;;;0.50;0.50;;;;;;;4.34;70.62;102108.53;5061497;28;20025;-71
2022/11/30 11:36:44;;;;;;;1.75;1.67;;;;;;;4.36;70.65;102110.31;5045910;28;20041;-71
2022/11/30 11:39:24;;;;;;;0.50;0.50;;;;;;;4.44;70.82;102108.97;5044867;28;20033;-72
2022/11/30 11:41:51;;;;;;;0.50;0.50;;;;;;;4.49;70.62;102110.03;5061439;28;20064;-73